Southport, Indiana
Current Conditions -  °F | °C
As of 9:54 PM on Wednesday 26 Nov 2014 (Local Time) from KIND Reporting Station
Overcast Overcast  
Wind Chill: 20°   Ceiling: 11000
Heat Index: 28°   Visibility: 9mi
Dew Point: 22°   Wind: 8mph
Humidity: 78%   Direction: 30°NNE
Pressure: 30.07"   Gusts: NA
Location:  39.6749°N, 86.1316°W
Report Text: KIND 270254Z 03007KT 9SM BKN110 OVC200 M02/M06 A3007 RMK AO2 SLP192 T10221056 53008
Loading
Personal Weather Stations






























Interactive Weather Map New forecast layout! Learn more

10-Day Weather Forecast

Advertisements
Track Severe Weather on mobile